Time;durP1;ratioP1;P1;durP2;ratioP2;P2;SDS_P1;SDS_P2;PMS_P1;PMS_P2;Temp;Humidity;BMP_temperature;BMP_pressure;BME280_temperature;BME280_humidity;BME280_pressure;Samples;Min_cycle;Max_cycle;Signal;HPM_P1;HPM_P2
2022/01/18 00:00:48;;;;;;;18.88;16.77;;;;;;;;;;5023827;28;20388;-72
2022/01/18 00:03:14;;;;;;;18.02;16.20;;;;;;;;;;5029520;28;20059;-72
2022/01/18 00:05:43;;;;;;;18.90;16.90;;;;;;;;;;5031262;28;20403;-73
2022/01/18 00:08:09;;;;;;;20.60;18.38;;;;;;;;;;5028686;28;20326;-74
2022/01/18 00:10:35;;;;;;;20.80;18.60;;;;;;;;;;5021153;28;20507;-74
2022/01/18 00:15:42;;;;;;;21.73;18.10;;;;;;;;;;5026823;28;20049;-72
2022/01/18 00:18:11;;;;;;;18.75;16.88;;;;;;;;;;5019859;28;20072;-72
2022/01/18 00:20:51;;;;;;;;;;;;;;;;;;5042691;28;20038;-73
2022/01/18 00:23:18;;;;;;;19.70;17.15;;;;;;;;;;5024629;28;19921;-73
2022/01/18 00:25:49;;;;;;;23.33;17.90;;;;;;;;;;5026612;28;20037;-71
2022/01/18 00:28:15;;;;;;;23.90;18.00;;;;;;;;;;5029992;28;20075;-72
2022/01/18 00:33:25;;;;;;;20.17;18.02;;;;;;;;;;5038305;28;20522;-72
2022/01/18 00:36:01;;;;;;;20.35;18.25;;;;;;;;;;5018082;28;20052;-72
2022/01/18 00:40:57;;;;;;;19.58;17.70;;;;;;;;;;5032781;28;20029;-73
2022/01/18 00:43:23;;;;;;;18.77;16.98;;;;;;;;;;5026815;28;20151;-72
2022/01/18 00:45:49;;;;;;;19.45;17.23;;;;;;;;;;5042718;28;20042;-72
2022/01/18 00:48:15;;;;;;;19.10;17.15;;;;;;;;;;5040831;28;20464;-72
2022/01/18 00:50:40;;;;;;;18.83;17.05;;;;;;;;;;5026383;28;20385;-71
2022/01/18 00:53:10;;;;;;;18.85;17.05;;;;;;;;;;5028584;28;20461;-72
2022/01/18 00:55:47;;;;;;;18.52;16.63;;;;;;;;;;5040280;28;20038;-71
2022/01/18 00:58:13;;;;;;;18.50;16.70;;;;;;;;;;5038314;28;20488;-72
2022/01/18 01:00:39;;;;;;;19.05;16.90;;;;;;;;;;5027247;28;20041;-71
2022/01/18 01:03:05;;;;;;;18.55;16.75;;;;;;;;;;5029203;28;20075;-72
2022/01/18 01:05:31;;;;;;;20.45;16.27;;;;;;;;;;5034118;28;20074;-72
2022/01/18 01:07:56;;;;;;;20.05;17.85;;;;;;;;;;5038155;28;20026;-73
2022/01/18 01:10:22;;;;;;;19.30;17.30;;;;;;;;;;5027968;28;20030;-72
2022/01/18 01:12:48;;;;;;;20.20;17.17;;;;;;;;;;5029950;28;20468;-73
2022/01/18 01:15:16;;;;;;;19.05;16.92;;;;;;;;;;5026118;28;20120;-72
2022/01/18 01:17:52;;;;;;;19.92;17.50;;;;;;;;;;5020412;28;20030;-71
2022/01/18 01:44:38;;;;;;;;;;;;;;;;;;5026093;28;20043;-71
2022/01/18 01:47:04;;;;;;;23.15;17.55;;;;;;;;;;5027734;28;19945;-73
2022/01/18 01:49:30;;;;;;;19.88;17.90;;;;;;;;;;5031023;28;20040;-71
2022/01/18 01:51:56;;;;;;;20.00;18.02;;;;;;;;;;5025000;28;20029;-72
2022/01/18 01:54:22;;;;;;;21.95;17.85;;;;;;;;;;5028625;28;20037;-72
2022/01/18 01:56:47;;;;;;;19.92;17.85;;;;;;;;;;5031958;28;20053;-73
2022/01/18 01:59:13;;;;;;;23.27;18.35;;;;;;;;;;5018542;28;20042;-73
2022/01/18 02:01:45;;;;;;;21.33;19.27;;;;;;;;;;5031711;28;20047;-72
2022/01/18 02:04:12;;;;;;;24.15;21.48;;;;;;;;;;5031484;28;20083;-72
2022/01/18 02:06:37;;;;;;;25.00;21.02;;;;;;;;;;5023402;28;20558;-71
2022/01/18 02:09:04;;;;;;;22.77;20.38;;;;;;;;;;5033534;28;20037;-71
2022/01/18 02:11:30;;;;;;;23.10;20.25;;;;;;;;;;5031314;28;20061;-72
2022/01/18 02:13:57;;;;;;;24.23;19.63;;;;;;;;;;5031212;28;20029;-72
2022/01/18 02:21:51;;;;;;;20.73;18.42;;;;;;;;;;5026551;28;20032;-72
2022/01/18 02:24:20;;;;;;;21.75;19.60;;;;;;;;;;5019723;28;20030;-71
2022/01/18 02:26:46;;;;;;;21.48;19.17;;;;;;;;;;5022316;28;20373;-73
2022/01/18 02:29:14;;;;;;;20.95;18.83;;;;;;;;;;5017768;28;20528;-72
2022/01/18 02:31:40;;;;;;;21.00;18.75;;;;;;;;;;5022942;28;20041;-72
2022/01/18 02:34:17;;;;;;;23.33;19.55;;;;;;;;;;5028843;28;20125;-73
2022/01/18 02:36:43;;;;;;;21.30;19.10;;;;;;;;;;5024430;28;20033;-73
2022/01/18 02:39:11;;;;;;;22.30;19.90;;;;;;;;;;5019761;28;20045;-73
2022/01/18 02:41:38;;;;;;;21.17;18.98;;;;;;;;;;5028149;28;20041;-73
2022/01/18 02:44:07;;;;;;;22.08;18.55;;;;;;;;;;5030597;28;20096;-71
2022/01/18 02:46:33;;;;;;;;;;;;;;;;;;5030807;28;20042;-71
2022/01/18 02:49:00;;;;;;;20.10;18.08;;;;;;;;;;5026294;28;19921;-71
2022/01/18 02:51:26;;;;;;;21.70;19.30;;;;;;;;;;5024416;28;20033;-72
2022/01/18 02:54:07;;;;;;;24.38;19.95;;;;;;;;;;5031110;28;20040;-73
2022/01/18 02:56:47;;;;;;;26.45;18.80;;;;;;;;;;5027331;28;20064;-73
2022/01/18 02:59:24;;;;;;;23.05;18.20;;;;;;;;;;5026179;28;20449;-74
2022/01/18 03:04:39;;;;;;;23.25;19.75;;;;;;;;;;5033697;28;20049;-74
2022/01/18 03:07:04;;;;;;;22.15;19.80;;;;;;;;;;5023153;28;20507;-72
2022/01/18 03:09:30;;;;;;;23.27;20.30;;;;;;;;;;5041396;28;20041;-74
2022/01/18 03:11:56;;;;;;;23.58;21.08;;;;;;;;;;5027563;28;20041;-74
2022/01/18 03:14:22;;;;;;;24.35;19.85;;;;;;;;;;5033552;28;20457;-74
2022/01/18 03:16:47;;;;;;;23.55;20.13;;;;;;;;;;5028335;28;20033;-75
2022/01/18 03:19:14;;;;;;;23.90;21.15;;;;;;;;;;5024467;28;20065;-74
2022/01/18 03:21:40;;;;;;;24.10;20.38;;;;;;;;;;5023815;28;20129;-74
2022/01/18 03:24:15;;;;;;;24.73;21.20;;;;;;;;;;5025443;28;20416;-74
2022/01/18 03:29:45;;;;;;;26.05;20.40;;;;;;;;;;4973241;28;20044;-74
2022/01/18 03:32:11;;;;;;;24.42;20.50;;;;;;;;;;4967351;28;20043;-75
2022/01/18 03:34:36;;;;;;;28.52;21.00;;;;;;;;;;4970127;28;20182;-71
2022/01/18 03:37:02;;;;;;;30.65;20.73;;;;;;;;;;4967559;28;20078;-73
2022/01/18 03:39:28;;;;;;;27.95;21.48;;;;;;;;;;4965645;28;20035;-72
2022/01/18 03:41:55;;;;;;;26.73;21.45;;;;;;;;;;4965738;28;20439;-73
2022/01/18 03:44:23;;;;;;;32.33;22.98;;;;;;;;;;4967501;28;20401;-74
2022/01/18 03:46:50;;;;;;;30.67;22.83;;;;;;;;;;4962643;28;20164;-74
2022/01/18 03:49:15;;;;;;;36.03;22.70;;;;;;;;;;4967922;28;20042;-72
2022/01/18 03:51:41;;;;;;;28.23;21.42;;;;;;;;;;4966638;28;20039;-72
2022/01/18 03:54:07;;;;;;;30.50;23.00;;;;;;;;;;4964302;28;20170;-72
2022/01/18 03:56:32;;;;;;;25.75;21.45;;;;;;;;;;4956506;28;20031;-72
2022/01/18 03:58:58;;;;;;;26.73;20.10;;;;;;;;;;4964046;28;20482;-74
2022/01/18 04:01:23;;;;;;;28.00;21.17;;;;;;;;;;5023594;28;20057;-74
2022/01/18 04:03:49;;;;;;;29.48;21.15;;;;;;;;;;5019038;28;20038;-73
2022/01/18 04:06:15;;;;;;;30.25;21.83;;;;;;;;;;5026500;28;20025;-72
2022/01/18 04:08:40;;;;;;;30.95;23.63;;;;;;;;;;5023333;28;20488;-74
2022/01/18 04:11:06;;;;;;;38.88;23.90;;;;;;;;;;5027742;28;20113;-74
2022/01/18 04:13:32;;;;;;;35.22;23.08;;;;;;;;;;5031016;28;20380;-74
2022/01/18 04:15:57;;;;;;;31.38;21.48;;;;;;;;;;5024457;28;20120;-74
2022/01/18 04:28:52;;;;;;;31.08;22.13;;;;;;;;;;5028518;28;20026;-74
2022/01/18 04:31:19;;;;;;;34.28;23.20;;;;;;;;;;5030338;28;20378;-72
2022/01/18 04:33:45;;;;;;;35.03;24.00;;;;;;;;;;5030790;28;20034;-73
2022/01/18 04:36:10;;;;;;;42.38;26.58;;;;;;;;;;5026754;28;20164;-73
2022/01/18 04:38:37;;;;;;;33.28;23.95;;;;;;;;;;5031027;28;20132;-73
2022/01/18 04:41:16;;;;;;;31.45;22.98;;;;;;;;;;5032142;28;20045;-74
2022/01/18 04:48:55;;;;;;;42.20;25.38;;;;;;;;;;5032681;28;20534;-73
2022/01/18 04:51:21;;;;;;;41.42;25.35;;;;;;;;;;5031280;28;20068;-73
2022/01/18 04:53:54;;;;;;;38.58;24.77;;;;;;;;;;5031389;28;20071;-73
2022/01/18 04:56:29;;;;;;;38.90;24.35;;;;;;;;;;5019706;28;20041;-73
2022/01/18 04:58:56;;;;;;;34.05;23.50;;;;;;;;;;5029152;28;20041;-72
2022/01/18 05:01:22;;;;;;;37.47;25.05;;;;;;;;;;5031625;28;20030;-73
2022/01/18 05:03:48;;;;;;;31.15;23.25;;;;;;;;;;5024929;28;20032;-74
2022/01/18 05:06:17;;;;;;;32.65;22.88;;;;;;;;;;5040940;28;20159;-73
2022/01/18 05:08:42;;;;;;;33.30;23.05;;;;;;;;;;5035340;28;20037;-74
2022/01/18 05:11:13;;;;;;;28.10;22.05;;;;;;;;;;5020921;28;20049;-74
2022/01/18 05:16:43;;;;;;;32.08;22.70;;;;;;;;;;5024814;28;20417;-73
2022/01/18 05:24:54;;;;;;;35.75;22.58;;;;;;;;;;5023044;28;20072;-73
2022/01/18 05:27:20;;;;;;;29.25;21.63;;;;;;;;;;5029828;28;20065;-73
2022/01/18 05:29:45;;;;;;;39.40;23.08;;;;;;;;;;5033906;28;20034;-72
2022/01/18 05:32:11;;;;;;;33.53;22.15;;;;;;;;;;5021011;28;20099;-73
2022/01/18 05:34:37;;;;;;;37.33;23.23;;;;;;;;;;5029136;28;20384;-73
2022/01/18 05:37:02;;;;;;;30.98;22.65;;;;;;;;;;5028859;28;20111;-73
2022/01/18 05:39:28;;;;;;;27.63;21.35;;;;;;;;;;5020330;28;20464;-72
2022/01/18 05:41:53;;;;;;;30.63;21.55;;;;;;;;;;5032775;28;20126;-72
2022/01/18 05:44:19;;;;;;;27.75;21.90;;;;;;;;;;5047344;28;20036;-72
2022/01/18 05:46:45;;;;;;;31.08;20.95;;;;;;;;;;5039698;28;20054;-72
2022/01/18 05:49:10;;;;;;;32.97;21.95;;;;;;;;;;5027040;28;20109;-72
2022/01/18 05:51:41;;;;;;;39.15;22.70;;;;;;;;;;5040400;28;20033;-72
2022/01/18 05:54:07;;;;;;;40.50;24.75;;;;;;;;;;5043304;28;20135;-72
2022/01/18 05:56:33;;;;;;;36.53;23.50;;;;;;;;;;5030674;28;20121;-73
2022/01/18 05:59:02;;;;;;;41.25;24.17;;;;;;;;;;5029520;28;20153;-72
2022/01/18 06:01:33;;;;;;;35.05;24.40;;;;;;;;;;5033013;28;20087;-74
2022/01/18 06:09:10;;;;;;;37.47;24.13;;;;;;;;;;5036188;28;20112;-73
2022/01/18 06:11:36;;;;;;;61.00;27.17;;;;;;;;;;5025456;28;20057;-73
2022/01/18 06:14:02;;;;;;;50.40;26.88;;;;;;;;;;5035171;28;20044;-71
2022/01/18 06:16:27;;;;;;;57.20;28.10;;;;;;;;;;5018027;28;20113;-72
2022/01/18 06:18:54;;;;;;;56.45;28.15;;;;;;;;;;5039004;28;20041;-73
2022/01/18 06:21:21;;;;;;;59.80;28.55;;;;;;;;;;5033068;28;20026;-73
2022/01/18 06:23:48;;;;;;;51.88;27.20;;;;;;;;;;5033484;22;20034;31
2022/01/18 06:26:15;;;;;;;59.95;28.10;;;;;;;;;;5020286;28;20045;-71
2022/01/18 06:28:42;;;;;;;58.47;27.67;;;;;;;;;;5025808;28;20036;-72
2022/01/18 06:31:08;;;;;;;61.30;27.27;;;;;;;;;;5020029;28;20050;-72
2022/01/18 06:33:33;;;;;;;62.03;26.73;;;;;;;;;;5007531;28;20039;-71
2022/01/18 06:35:59;;;;;;;64.82;29.05;;;;;;;;;;4977272;28;20501;-71
2022/01/18 06:38:24;;;;;;;58.17;28.00;;;;;;;;;;5005167;28;20484;-71
2022/01/18 06:40:50;;;;;;;70.05;32.03;;;;;;;;;;5009406;28;20426;-71
2022/01/18 06:43:16;;;;;;;77.28;30.50;;;;;;;;;;5009459;28;20034;-71
2022/01/18 06:45:42;;;;;;;82.82;33.00;;;;;;;;;;4998004;28;20072;-71
2022/01/18 06:48:07;;;;;;;68.55;29.90;;;;;;;;;;5007803;28;20048;-71
2022/01/18 06:50:34;;;;;;;67.13;28.90;;;;;;;;;;5008372;28;20030;-70
2022/01/18 06:53:00;;;;;;;81.78;31.48;;;;;;;;;;5004546;28;20363;-71
2022/01/18 06:55:26;;;;;;;71.45;30.77;;;;;;;;;;4999546;28;20038;-72
2022/01/18 06:57:53;;;;;;;81.93;31.30;;;;;;;;;;4991563;28;20402;-71
2022/01/18 07:00:18;;;;;;;72.07;30.25;;;;;;;;;;5009111;28;20033;-71
2022/01/18 07:02:44;;;;;;;83.07;33.20;;;;;;;;;;5001111;28;20038;-71
2022/01/18 07:05:11;;;;;;;90.22;32.70;;;;;;;;;;5002301;28;20041;-71
2022/01/18 07:07:38;;;;;;;85.72;32.60;;;;;;;;;;5009076;28;20104;-71
2022/01/18 07:10:04;;;;;;;91.38;32.40;;;;;;;;;;5008781;28;20311;-71
2022/01/18 07:12:34;;;;;;;84.05;32.70;;;;;;;;;;5003748;28;20115;-71
2022/01/18 07:14:59;;;;;;;;;;;;;;;;;;5007035;28;20048;-72
2022/01/18 07:17:25;;;;;;;76.72;30.40;;;;;;;;;;5007450;28;19913;-71
2022/01/18 07:19:51;;;;;;;55.90;27.55;;;;;;;;;;4990959;28;20042;-72
2022/01/18 07:22:16;;;;;;;67.68;30.38;;;;;;;;;;4997399;28;20558;-71
2022/01/18 07:24:46;;;;;;;59.95;28.70;;;;;;;;;;5000296;28;20124;-71
2022/01/18 07:27:12;;;;;;;;;;;;;;;;;;4992310;28;20032;-71
2022/01/18 07:29:43;;;;;;;59.15;26.17;;;;;;;;;;5008564;28;20198;-71
2022/01/18 07:32:09;;;;;;;55.33;26.95;;;;;;;;;;4981505;28;20045;-72
2022/01/18 07:34:40;;;;;;;55.75;26.80;;;;;;;;;;5005970;28;20436;-71
2022/01/18 07:37:06;;;;;;;67.53;29.67;;;;;;;;;;5008359;28;20038;-71
2022/01/18 07:39:32;;;;;;;52.13;25.67;;;;;;;;;;5001263;28;20477;-71
2022/01/18 07:41:58;;;;;;;59.75;25.85;;;;;;;;;;5002805;28;20034;-72
2022/01/18 07:44:24;;;;;;;60.80;26.63;;;;;;;;;;5008736;28;20044;-72
2022/01/18 07:46:49;;;;;;;54.70;26.13;;;;;;;;;;5005497;28;20112;-71
2022/01/18 07:49:15;;;;;;;57.20;26.70;;;;;;;;;;5007445;28;20033;-71
2022/01/18 07:51:40;;;;;;;54.85;24.73;;;;;;;;;;5007439;28;20046;-72
2022/01/18 07:54:07;;;;;;;48.10;24.05;;;;;;;;;;5008171;28;20311;-71
2022/01/18 07:56:34;;;;;;;48.55;24.33;;;;;;;;;;5002009;28;20040;-72
2022/01/18 07:58:59;;;;;;;40.55;24.52;;;;;;;;;;5002379;28;20049;-71
2022/01/18 08:01:26;;;;;;;51.50;25.35;;;;;;;;;;5008446;28;20056;-72
2022/01/18 08:03:51;;;;;;;42.30;24.33;;;;;;;;;;5006491;28;20041;-71
2022/01/18 08:06:17;;;;;;;48.97;25.65;;;;;;;;;;4999004;28;20036;-71
2022/01/18 08:08:42;;;;;;;42.67;26.30;;;;;;;;;;5006238;28;20038;-71
2022/01/18 08:11:08;;;;;;;40.03;24.83;;;;;;;;;;5007900;28;20069;-71
2022/01/18 08:13:47;;;;;;;39.75;25.15;;;;;;;;;;4986969;28;20145;-71
2022/01/18 08:18:56;;;;;;;35.70;24.05;;;;;;;;;;5007808;28;20034;-72
2022/01/18 08:21:22;;;;;;;32.45;23.48;;;;;;;;;;5003197;28;20117;-72
2022/01/18 08:23:47;;;;;;;32.47;23.10;;;;;;;;;;4984552;28;20407;-72
2022/01/18 08:26:13;;;;;;;36.25;23.90;;;;;;;;;;5003422;28;20122;-72
2022/01/18 08:28:39;;;;;;;32.63;24.20;;;;;;;;;;5007925;28;20044;-72
2022/01/18 08:31:05;;;;;;;32.65;23.42;;;;;;;;;;5000555;28;20405;-70
2022/01/18 08:33:32;;;;;;;35.35;24.58;;;;;;;;;;5003295;28;20086;-70
2022/01/18 08:35:59;;;;;;;39.20;26.08;;;;;;;;;;5008009;28;20385;-70
2022/01/18 08:38:28;;;;;;;35.45;24.42;;;;;;;;;;5008493;28;20394;-70
2022/01/18 08:40:58;;;;;;;39.60;25.93;;;;;;;;;;4997281;28;20076;-70
2022/01/18 08:43:24;;;;;;;37.03;24.52;;;;;;;;;;5003391;28;20092;-71
2022/01/18 08:45:50;;;;;;;54.80;27.92;;;;;;;;;;5005598;28;20456;-71
2022/01/18 08:48:16;;;;;;;46.67;26.75;;;;;;;;;;4985605;28;20037;-71
2022/01/18 08:50:41;;;;;;;53.33;29.58;;;;;;;;;;4998759;28;20030;-71
2022/01/18 08:53:07;;;;;;;45.90;26.52;;;;;;;;;;5002736;28;20038;-73
2022/01/18 08:55:34;;;;;;;45.97;26.70;;;;;;;;;;4999938;28;20185;-70
2022/01/18 08:58:00;;;;;;;39.47;24.45;;;;;;;;;;5001355;28;20062;-70
2022/01/18 09:00:26;;;;;;;38.13;24.75;;;;;;;;;;5008516;28;20038;-70
2022/01/18 09:02:52;;;;;;;36.72;24.52;;;;;;;;;;5009538;28;20053;-70
2022/01/18 09:05:21;;;;;;;35.55;25.23;;;;;;;;;;5008817;28;20503;-70
2022/01/18 09:07:46;;;;;;;37.33;24.25;;;;;;;;;;4993257;28;20041;-70
2022/01/18 09:10:12;;;;;;;37.15;23.75;;;;;;;;;;5009288;28;20037;-70
2022/01/18 09:12:39;;;;;;;35.70;24.63;;;;;;;;;;5010753;28;20041;-70
2022/01/18 09:15:07;;;;;;;39.85;24.55;;;;;;;;;;5002560;28;20511;-70
2022/01/18 09:17:34;;;;;;;35.63;23.92;;;;;;;;;;5007046;28;20030;-70
2022/01/18 09:20:05;;;;;;;36.95;23.67;;;;;;;;;;4993762;28;20108;-72
2022/01/18 09:22:32;;;;;;;35.90;22.95;;;;;;;;;;5000858;28;20346;-70
2022/01/18 09:24:58;;;;;;;34.03;23.90;;;;;;;;;;5005192;28;20481;-71
2022/01/18 09:27:24;;;;;;;38.22;24.38;;;;;;;;;;5010668;28;20068;-70
2022/01/18 09:29:49;;;;;;;40.03;24.20;;;;;;;;;;5010903;28;20030;-70
2022/01/18 09:32:16;;;;;;;43.08;24.77;;;;;;;;;;5007072;28;20117;-70
2022/01/18 09:34:42;;;;;;;38.40;23.75;;;;;;;;;;5001684;28;20392;-70
2022/01/18 09:37:07;;;;;;;37.67;24.17;;;;;;;;;;5007023;28;20567;-70
2022/01/18 09:39:33;;;;;;;42.33;24.95;;;;;;;;;;5009329;28;20125;-71
2022/01/18 09:42:02;;;;;;;36.67;24.58;;;;;;;;;;5000583;28;20528;-71
2022/01/18 09:44:29;;;;;;;;;;;;;;;;;;5002434;28;20248;-71
2022/01/18 09:46:54;;;;;;;34.95;23.50;;;;;;;;;;5000374;28;20016;-71
2022/01/18 09:49:20;;;;;;;33.78;22.40;;;;;;;;;;4999394;28;20113;-71
2022/01/18 09:51:46;;;;;;;37.47;23.88;;;;;;;;;;5007088;28;20047;-71
2022/01/18 09:54:12;;;;;;;35.33;23.92;;;;;;;;;;4992351;28;20112;-71
2022/01/18 09:56:37;;;;;;;40.47;26.00;;;;;;;;;;4998437;28;20033;-71
2022/01/18 09:59:04;;;;;;;41.90;25.33;;;;;;;;;;5006880;28;20037;-71
2022/01/18 10:01:30;;;;;;;42.42;28.38;;;;;;;;;;4993063;28;20045;-71
2022/01/18 10:04:19;;;;;;;39.65;24.80;;;;;;;;;;5006717;28;20026;-71
2022/01/18 10:06:48;;;;;;;39.42;24.17;;;;;;;;;;5005445;28;20040;-71
2022/01/18 10:09:16;;;;;;;59.97;30.97;;;;;;;;;;5010253;28;20040;-71
2022/01/18 10:12:11;;;;;;;43.67;25.42;;;;;;;;;;5008702;28;20122;-70
2022/01/18 10:14:43;;;;;;;38.45;24.60;;;;;;;;;;5004203;28;20065;-71
2022/01/18 10:17:10;;;;;;;40.13;25.30;;;;;;;;;;5012629;28;20523;-71
2022/01/18 10:19:51;;;;;;;44.17;23.77;;;;;;;;;;5013824;28;20038;-69
2022/01/18 10:22:23;;;;;;;55.83;31.55;;;;;;;;;;5007267;28;20048;-72
2022/01/18 10:24:49;;;;;;;46.22;28.45;;;;;;;;;;5010890;28;20095;-69
2022/01/18 10:27:15;;;;;;;42.30;26.38;;;;;;;;;;5013408;28;20042;-70
2022/01/18 10:29:45;;;;;;;37.35;25.95;;;;;;;;;;5009096;28;20362;-70
2022/01/18 10:32:16;;;;;;;33.58;23.70;;;;;;;;;;5005013;28;20053;-70
2022/01/18 10:37:22;;;;;;;38.40;24.00;;;;;;;;;;5008489;28;20045;-70
2022/01/18 10:39:48;;;;;;;34.88;24.27;;;;;;;;;;5001298;28;20029;-70
2022/01/18 10:42:17;;;;;;;31.27;23.50;;;;;;;;;;5010336;28;20046;-70
2022/01/18 10:44:46;;;;;;;32.97;23.25;;;;;;;;;;5010015;28;20230;-70
2022/01/18 10:47:12;;;;;;;38.88;23.60;;;;;;;;;;5008152;28;20045;-71
2022/01/18 10:49:46;;;;;;;33.97;22.08;;;;;;;;;;5010616;28;20034;-70
2022/01/18 10:52:15;;;;;;;31.35;23.20;;;;;;;;;;5006211;28;20038;-72
2022/01/18 10:54:40;;;;;;;28.20;20.50;;;;;;;;;;5001734;28;20064;-70
2022/01/18 10:57:08;;;;;;;22.70;20.40;;;;;;;;;;5009089;28;20069;-69
2022/01/18 10:59:37;;;;;;;29.55;22.23;;;;;;;;;;5009940;28;20030;-69
2022/01/18 11:02:15;;;;;;;28.05;20.98;;;;;;;;;;5008724;28;20033;-70
2022/01/18 11:04:45;;;;;;;26.58;21.65;;;;;;;;;;4997276;28;20117;-70
2022/01/18 11:07:12;;;;;;;27.45;21.52;;;;;;;;;;5009637;28;20408;-70
2022/01/18 11:09:39;;;;;;;31.35;21.50;;;;;;;;;;5005581;28;20045;-70
2022/01/18 11:12:06;;;;;;;30.13;22.65;;;;;;;;;;5000084;28;20044;-70
2022/01/18 11:14:33;;;;;;;28.23;21.77;;;;;;;;;;5002361;28;20038;-70
2022/01/18 11:16:59;;;;;;;23.75;20.17;;;;;;;;;;4995325;28;20046;-70
2022/01/18 11:22:11;;;;;;;30.38;21.65;;;;;;;;;;5002735;28;20042;-70
2022/01/18 11:24:41;;;;;;;26.48;21.10;;;;;;;;;;4983782;28;20045;-70
2022/01/18 11:27:13;;;;;;;;;;;;;;;;;;5009473;28;20069;-70
2022/01/18 11:29:41;;;;;;;24.70;19.35;;;;;;;;;;5008983;28;19918;-70
2022/01/18 11:32:08;;;;;;;26.10;19.05;;;;;;;;;;5001370;28;20042;-70
2022/01/18 11:34:55;;;;;;;20.50;17.45;;;;;;;;;;5006029;28;20038;-70
2022/01/18 11:37:32;;;;;;;21.98;18.45;;;;;;;;;;5007694;28;20041;-70
2022/01/18 11:39:59;;;;;;;24.27;18.05;;;;;;;;;;5008891;28;20092;-70
2022/01/18 11:42:46;;;;;;;24.98;18.08;;;;;;;;;;4987347;28;20041;-70
2022/01/18 11:45:24;;;;;;;23.40;18.08;;;;;;;;;;4986877;28;20049;-70
2022/01/18 11:47:58;;;;;;;25.88;18.73;;;;;;;;;;5005447;28;20416;-70
2022/01/18 11:50:50;;;;;;;23.80;18.75;;;;;;;;;;5007715;28;20034;-69
2022/01/18 11:53:25;;;;;;;28.63;18.48;;;;;;;;;;4999917;28;20030;-69
2022/01/18 11:55:55;;;;;;;30.30;20.30;;;;;;;;;;5009727;28;20133;-70
2022/01/18 11:58:22;;;;;;;26.15;18.60;;;;;;;;;;5006261;28;20030;-70
2022/01/18 12:00:50;;;;;;;24.98;19.25;;;;;;;;;;5001728;28;20021;-70
2022/01/18 12:03:41;;;;;;;26.23;18.75;;;;;;;;;;5008732;28;20120;-69
2022/01/18 12:06:06;;;;;;;27.45;19.52;;;;;;;;;;5002787;28;20054;-70
2022/01/18 12:08:38;;;;;;;23.65;18.45;;;;;;;;;;4999886;28;20096;-69
2022/01/18 12:11:07;;;;;;;23.88;18.63;;;;;;;;;;5007428;28;20030;-70
2022/01/18 12:13:41;;;;;;;25.17;18.25;;;;;;;;;;5008639;28;20041;-69
2022/01/18 12:16:21;;;;;;;23.08;18.67;;;;;;;;;;5006553;28;20044;-69
2022/01/18 12:18:52;;;;;;;26.60;19.35;;;;;;;;;;4999902;28;20034;-69
2022/01/18 12:21:22;;;;;;;27.58;18.95;;;;;;;;;;4987367;28;20517;-69
2022/01/18 12:23:48;;;;;;;28.20;19.15;;;;;;;;;;5000508;28;20061;-69
2022/01/18 12:26:27;;;;;;;28.27;20.40;;;;;;;;;;4999598;22;20077;-76
2022/01/18 12:29:20;;;;;;;28.00;19.58;;;;;;;;;;4991930;28;20046;-74
2022/01/18 12:37:11;;;;;;;20.88;17.80;;;;;;;;;;4980462;28;20603;-74
2022/01/18 12:45:27;;;;;;;20.80;15.60;;;;;;;;;;4996944;28;20069;-74
2022/01/18 12:47:55;;;;;;;17.58;15.30;;;;;;;;;;4973635;28;20030;-75
2022/01/18 12:50:25;;;;;;;15.98;14.25;;;;;;;;;;4979152;28;20023;-75
2022/01/18 12:52:59;;;;;;;72.15;40.17;;;;;;;;;;4998734;28;20618;-74
2022/01/18 12:55:45;;;;;;;16.17;14.50;;;;;;;;;;4991052;28;20041;-74
2022/01/18 12:58:26;;;;;;;15.73;14.27;;;;;;;;;;4980591;28;20120;-75
2022/01/18 13:00:51;;;;;;;19.02;14.80;;;;;;;;;;4989694;28;20037;-74
2022/01/18 13:03:41;;;;;;;16.42;14.57;;;;;;;;;;4993138;28;20030;-74
2022/01/18 13:06:12;;;;;;;16.05;14.35;;;;;;;;;;4987395;28;20030;-74
2022/01/18 13:08:53;;;;;;;15.60;14.02;;;;;;;;;;4967971;28;20042;-74
2022/01/18 13:11:21;;;;;;;14.43;13.23;;;;;;;;;;4989850;28;20021;-74
2022/01/18 13:14:01;;;;;;;14.75;13.45;;;;;;;;;;4987999;28;20089;-74
2022/01/18 13:27:20;;;;;;;14.00;12.80;;;;;;;;;;4988414;28;20490;-74
2022/01/18 13:29:48;;;;;;;14.02;12.82;;;;;;;;;;4989394;28;20441;-75
2022/01/18 13:32:19;;;;;;;14.48;13.07;;;;;;;;;;4969892;28;20050;-76
2022/01/18 13:34:47;;;;;;;14.80;13.48;;;;;;;;;;4996090;28;20868;-76
2022/01/18 13:37:18;;;;;;;14.38;13.27;;;;;;;;;;4967027;28;20064;-75
2022/01/18 13:39:47;;;;;;;16.25;14.93;;;;;;;;;;4987833;28;20033;-75
2022/01/18 13:42:33;;;;;;;14.25;12.93;;;;;;;;;;4990742;28;20033;-76
2022/01/18 13:45:19;;;;;;;13.93;12.77;;;;;;;;;;4989725;28;20493;-76
2022/01/18 13:47:49;;;;;;;13.70;12.60;;;;;;;;;;4969935;28;20046;-75
2022/01/18 13:50:37;;;;;;;13.80;12.48;;;;;;;;;;4968694;28;20038;-76
2022/01/18 13:53:09;;;;;;;16.25;14.90;;;;;;;;;;4981705;28;20050;-75
2022/01/18 13:55:42;;;;;;;12.40;11.27;;;;;;;;;;4951631;28;20046;-76
2022/01/18 13:58:08;;;;;;;13.30;12.18;;;;;;;;;;4982809;28;20038;-76
2022/01/18 14:00:34;;;;;;;13.43;12.40;;;;;;;;;;4987650;28;20103;-76
2022/01/18 14:03:00;;;;;;;13.45;12.25;;;;;;;;;;4987218;28;20513;-75
2022/01/18 14:05:26;;;;;;;14.07;12.77;;;;;;;;;;4987274;28;20069;-75
2022/01/18 14:08:02;;;;;;;13.95;12.40;;;;;;;;;;4970182;28;20089;-75
2022/01/18 14:10:28;;;;;;;13.95;12.65;;;;;;;;;;4979308;28;20149;-75
2022/01/18 14:12:53;;;;;;;14.30;13.02;;;;;;;;;;4982469;28;20046;-75
2022/01/18 14:15:42;;;;;;;13.48;12.23;;;;;;;;;;4983277;28;20034;-75
2022/01/18 14:18:08;;;;;;;13.05;12.15;;;;;;;;;;4992329;28;20046;-76
2022/01/18 14:20:35;;;;;;;13.70;12.60;;;;;;;;;;4975424;28;20040;-74
2022/01/18 14:23:01;;;;;;;14.25;12.82;;;;;;;;;;4975604;28;20174;-74
2022/01/18 14:25:31;;;;;;;14.35;13.15;;;;;;;;;;4971412;28;20690;-74
2022/01/18 14:28:10;;;;;;;13.88;12.60;;;;;;;;;;4988347;28;20039;-74
2022/01/18 14:30:37;;;;;;;14.50;13.30;;;;;;;;;;4988148;28;20030;-74
2022/01/18 14:33:07;;;;;;;14.57;13.30;;;;;;;;;;4974470;28;20449;-74
2022/01/18 14:35:38;;;;;;;13.80;12.52;;;;;;;;;;4988664;28;20413;-75
2022/01/18 14:38:06;;;;;;;14.18;12.82;;;;;;;;;;4991074;28;20037;-75
2022/01/18 14:40:39;;;;;;;13.20;12.00;;;;;;;;;;4988737;28;20502;-75
2022/01/18 14:43:15;;;;;;;12.75;11.45;;;;;;;;;;4970919;28;20537;-73
2022/01/18 14:46:00;;;;;;;12.32;11.20;;;;;;;;;;4968691;28;20045;-76
2022/01/18 14:48:32;;;;;;;11.80;10.70;;;;;;;;;;4971330;28;20545;-74
2022/01/18 14:50:58;;;;;;;12.98;11.77;;;;;;;;;;4973276;28;20378;-77
2022/01/18 14:53:25;;;;;;;13.07;11.70;;;;;;;;;;4989620;28;20053;-77
2022/01/18 14:55:55;;;;;;;11.30;10.40;;;;;;;;;;4986202;28;20046;-76
2022/01/18 14:58:21;;;;;;;12.30;11.20;;;;;;;;;;4973270;28;20087;-76
2022/01/18 15:00:48;;;;;;;16.08;14.57;;;;;;;;;;4987976;28;20080;-74
2022/01/18 15:03:14;;;;;;;14.95;11.80;;;;;;;;;;4985446;28;20034;-74
2022/01/18 15:05:40;;;;;;;13.23;11.50;;;;;;;;;;4995645;28;20038;-74
2022/01/18 15:08:06;;;;;;;12.75;11.43;;;;;;;;;;4988362;28;20030;-76
2022/01/18 15:10:35;;;;;;;12.18;11.05;;;;;;;;;;4990148;28;20038;-74
2022/01/18 15:13:01;;;;;;;;;;;;;;;;;;4992695;28;20092;-74
2022/01/18 15:15:28;;;;;;;12.55;10.65;;;;;;;;;;4993455;28;19917;-75
2022/01/18 15:17:54;;;;;;;11.27;10.38;;;;;;;;;;4967250;28;20034;-74
2022/01/18 15:20:20;;;;;;;12.30;11.05;;;;;;;;;;4958064;28;20048;-74
2022/01/18 15:22:47;;;;;;;12.48;11.35;;;;;;;;;;5000899;28;20033;-74
2022/01/18 15:25:14;;;;;;;12.13;11.23;;;;;;;;;;4985912;28;20030;-75
2022/01/18 15:27:40;;;;;;;12.15;11.32;;;;;;;;;;4966899;28;20046;-74
2022/01/18 15:30:11;;;;;;;12.02;11.13;;;;;;;;;;4966400;28;20469;-77
2022/01/18 15:32:40;;;;;;;15.60;13.68;;;;;;;;;;4967449;28;20046;-74
2022/01/18 15:35:06;;;;;;;19.13;15.23;;;;;;;;;;4984198;28;20109;-77
2022/01/18 15:37:32;;;;;;;19.38;16.55;;;;;;;;;;4989935;28;20045;-74
2022/01/18 15:40:01;;;;;;;17.02;15.23;;;;;;;;;;4988162;28;20038;-75
2022/01/18 15:42:28;;;;;;;;;;;;;;;;;;4977124;28;20035;-74
2022/01/18 15:44:54;;;;;;;10.95;9.85;;;;;;;;;;4993924;28;19921;-74
2022/01/18 15:47:19;;;;;;;11.98;10.85;;;;;;;;;;4970154;28;20437;-74
2022/01/18 15:49:45;;;;;;;13.07;10.73;;;;;;;;;;4969729;28;20034;-74
2022/01/18 15:52:11;;;;;;;12.23;11.00;;;;;;;;;;4998368;28;20037;-74
2022/01/18 15:54:38;;;;;;;12.48;11.02;;;;;;;;;;4971452;28;20148;-75
2022/01/18 15:57:07;;;;;;;13.60;10.27;;;;;;;;;;4972865;28;20073;-74
2022/01/18 15:59:42;;;;;;;;;;;;;;;;;;4973727;28;20037;-74
2022/01/18 16:02:08;;;;;;;10.65;9.85;;;;;;;;;;4965597;28;20320;-74
2022/01/18 16:04:35;;;;;;;10.70;9.80;;;;;;;;;;4983883;28;20107;-74
2022/01/18 16:07:01;;;;;;;10.70;9.80;;;;;;;;;;4987146;28;20040;-73
2022/01/18 16:09:27;;;;;;;47.53;31.52;;;;;;;;;;4988435;28;20081;-74
2022/01/18 16:11:53;;;;;;;124.57;34.67;;;;;;;;;;4972649;28;20039;-74